createdAt,value
2023-05-03T00:00:29.641Z,11.99
2023-05-03T00:03:13.796Z,11.96
2023-05-03T00:05:42.500Z,11.92
2023-05-03T00:08:11.237Z,11.88
2023-05-03T00:10:39.866Z,11.86
2023-05-03T00:13:08.467Z,11.82
2023-05-03T00:15:37.113Z,11.80
2023-05-03T00:18:06.562Z,11.77
2023-05-03T00:20:35.049Z,11.73
2023-05-03T00:23:03.563Z,11.70
2023-05-03T00:25:32.010Z,11.65
2023-05-03T00:28:00.484Z,11.61
2023-05-03T00:30:29.228Z,11.58
2023-05-03T00:32:58.322Z,11.55
2023-05-03T00:35:28.097Z,11.51
2023-05-03T00:37:56.546Z,11.48
2023-05-03T00:40:25.179Z,11.46
2023-05-03T00:42:54.407Z,11.45
2023-05-03T00:45:22.916Z,11.43
2023-05-03T00:47:51.777Z,11.43
2023-05-03T00:50:21.105Z,11.42
2023-05-03T00:52:49.753Z,11.41
2023-05-03T00:55:18.400Z,11.37
2023-05-03T00:57:46.894Z,11.33
2023-05-03T01:00:18.067Z,11.31
2023-05-03T01:02:47.019Z,11.17
2023-05-03T01:05:17.176Z,10.95
2023-05-03T01:08:13.589Z,10.66
2023-05-03T01:10:55.041Z,10.35
2023-05-03T01:13:44.532Z,10.10
2023-05-03T01:16:25.051Z,9.85
2023-05-03T01:18:55.670Z,9.71
2023-05-03T01:21:26.190Z,9.47
2023-05-03T01:24:11.707Z,9.32
2023-05-03T01:26:40.257Z,9.19
2023-05-03T01:29:08.754Z,9.11
2023-05-03T01:32:01.152Z,8.99
2023-05-03T01:34:54.648Z,8.95
2023-05-03T01:37:23.600Z,8.92
2023-05-03T01:40:00.760Z,8.82
2023-05-03T01:42:30.840Z,8.77
2023-05-03T01:45:00.889Z,8.73
2023-05-03T01:47:29.553Z,8.68
2023-05-03T01:49:58.088Z,8.65
2023-05-03T01:52:27.173Z,8.61
2023-05-03T01:54:55.765Z,8.57
2023-05-03T01:57:24.284Z,8.59
2023-05-03T01:59:52.868Z,8.66
2023-05-03T02:02:22.679Z,8.80
2023-05-03T02:04:51.298Z,8.79
2023-05-03T02:07:20.305Z,8.74
2023-05-03T02:09:48.824Z,8.68
2023-05-03T02:12:18.138Z,8.61
2023-05-03T02:14:46.740Z,8.54
2023-05-03T02:17:16.508Z,8.48
2023-05-03T02:19:45.120Z,8.39
2023-05-03T02:22:13.657Z,8.37
2023-05-03T02:24:43.462Z,8.35
2023-05-03T02:27:11.945Z,8.31
2023-05-03T02:29:40.946Z,8.30
2023-05-03T02:32:09.606Z,8.27
2023-05-03T02:34:39.266Z,8.25
2023-05-03T02:37:09.141Z,8.19
2023-05-03T02:39:37.620Z,8.10
2023-05-03T02:42:06.874Z,8.01
2023-05-03T02:44:35.771Z,7.99
2023-05-03T02:47:04.332Z,7.98
2023-05-03T02:49:33.068Z,7.91
2023-05-03T02:52:01.486Z,7.82
2023-05-03T02:54:30.108Z,7.79
2023-05-03T02:56:59.755Z,7.78
2023-05-03T02:59:28.631Z,7.73
2023-05-03T03:01:57.795Z,7.72
2023-05-03T03:04:26.668Z,7.71
2023-05-03T03:06:56.909Z,7.67
2023-05-03T03:09:25.912Z,7.65
2023-05-03T03:11:55.008Z,7.66
2023-05-03T03:14:24.149Z,7.66
2023-05-03T03:16:52.974Z,7.66
2023-05-03T03:19:22.201Z,7.66
2023-05-03T03:21:51.020Z,7.64
2023-05-03T03:24:19.616Z,7.67
2023-05-03T03:26:49.186Z,7.68
2023-05-03T03:29:17.841Z,7.65
2023-05-03T03:31:46.838Z,7.66
2023-05-03T03:34:17.219Z,7.65
2023-05-03T03:36:45.914Z,7.69
2023-05-03T03:39:14.651Z,7.79
2023-05-03T03:41:44.606Z,7.84
2023-05-03T03:44:13.499Z,7.92
2023-05-03T03:46:42.370Z,7.99
2023-05-03T03:49:11.338Z,8.07
2023-05-03T03:51:40.289Z,8.15
2023-05-03T03:54:09.179Z,8.20
2023-05-03T03:56:38.171Z,8.26
2023-05-03T03:59:08.333Z,8.34
2023-05-03T04:01:37.404Z,8.43
2023-05-03T04:04:07.659Z,8.51
2023-05-03T04:06:37.202Z,8.57
2023-05-03T04:09:08.665Z,8.63
2023-05-03T04:11:38.205Z,8.73
2023-05-03T04:14:07.306Z,8.83
2023-05-03T04:16:36.497Z,8.95
2023-05-03T04:19:06.419Z,9.07
2023-05-03T04:21:37.531Z,9.21
2023-05-03T04:24:07.803Z,9.31
2023-05-03T04:26:36.672Z,9.42
2023-05-03T04:29:11.921Z,9.53
2023-05-03T04:31:40.843Z,9.58
2023-05-03T04:34:10.773Z,9.73
2023-05-03T04:36:40.357Z,9.88
2023-05-03T04:39:12.208Z,9.99
2023-05-03T04:41:42.305Z,10.13
2023-05-03T04:44:12.025Z,10.28
2023-05-03T04:46:40.842Z,10.46
2023-05-03T04:49:09.834Z,10.66
2023-05-03T04:51:38.665Z,10.86
2023-05-03T04:54:07.341Z,11.04
2023-05-03T04:56:36.254Z,11.19
2023-05-03T04:59:12.685Z,11.36
2023-05-03T05:01:41.561Z,11.53
2023-05-03T05:04:10.381Z,11.71
2023-05-03T05:06:42.676Z,11.88
2023-05-03T05:09:26.201Z,12.04
2023-05-03T05:11:57.388Z,12.20
2023-05-03T05:14:30.358Z,12.34
2023-05-03T05:16:59.492Z,12.47
2023-05-03T05:19:28.395Z,12.60
2023-05-03T05:21:57.092Z,12.69
2023-05-03T05:24:29.206Z,12.77
2023-05-03T05:26:58.865Z,12.85
2023-05-03T05:29:31.604Z,12.90
2023-05-03T05:32:02.058Z,12.99
2023-05-03T05:34:42.123Z,13.07
2023-05-03T05:37:14.220Z,13.19
2023-05-03T05:39:43.001Z,13.29
2023-05-03T05:42:12.317Z,13.37
2023-05-03T05:44:41.329Z,13.45
2023-05-03T05:47:12.366Z,13.54
2023-05-03T05:49:42.236Z,13.57
2023-05-03T05:52:11.736Z,13.67
2023-05-03T05:54:41.226Z,13.76
2023-05-03T05:57:10.833Z,13.86
2023-05-03T05:59:39.581Z,13.94
2023-05-03T06:02:16.943Z,14.04
2023-05-03T06:04:47.570Z,14.11
2023-05-03T06:07:18.898Z,14.21
2023-05-03T06:09:47.604Z,14.31
2023-05-03T06:12:16.644Z,14.42
2023-05-03T06:15:01.062Z,14.52
2023-05-03T06:17:32.307Z,14.64
2023-05-03T06:20:01.278Z,14.76
2023-05-03T06:22:30.258Z,14.86
2023-05-03T06:24:58.961Z,14.87
2023-05-03T06:27:28.128Z,14.95
2023-05-03T06:29:57.633Z,15.05
2023-05-03T06:32:26.373Z,15.14
2023-05-03T06:34:55.409Z,15.24
2023-05-03T06:37:24.492Z,15.37
2023-05-03T06:39:53.711Z,15.50
2023-05-03T06:42:25.327Z,15.62
2023-05-03T06:45:07.050Z,15.73
2023-05-03T06:47:37.481Z,15.82
2023-05-03T06:50:07.035Z,15.94
2023-05-03T06:52:35.845Z,16.02
2023-05-03T06:55:05.200Z,16.08
2023-05-03T06:57:33.790Z,16.17
2023-05-03T07:00:02.805Z,16.24
2023-05-03T07:02:31.671Z,16.30
2023-05-03T07:05:00.640Z,16.37
2023-05-03T07:07:29.123Z,16.43
2023-05-03T07:09:57.557Z,16.50
2023-05-03T07:12:28.444Z,16.56
2023-05-03T07:14:57.391Z,16.66
2023-05-03T07:17:26.608Z,16.74
2023-05-03T07:19:55.152Z,16.77
2023-05-03T07:22:26.265Z,16.82
2023-05-03T07:24:54.928Z,16.92
2023-05-03T07:27:23.713Z,16.95
2023-05-03T07:29:52.617Z,17.00
2023-05-03T07:32:22.571Z,17.09
2023-05-03T07:34:51.361Z,17.21
2023-05-03T07:37:27.148Z,17.28
2023-05-03T07:39:55.655Z,17.38
2023-05-03T07:42:26.241Z,17.49
2023-05-03T07:44:55.552Z,17.56
2023-05-03T07:47:24.140Z,17.64
2023-05-03T07:49:52.842Z,17.71
2023-05-03T07:52:21.498Z,17.80
2023-05-03T07:54:50.048Z,17.87
2023-05-03T07:57:18.979Z,17.98
2023-05-03T07:59:47.548Z,18.08
2023-05-03T08:02:16.382Z,18.13
2023-05-03T08:04:45.350Z,18.20
2023-05-03T08:07:14.592Z,18.21
2023-05-03T08:09:43.629Z,18.26
2023-05-03T08:12:12.091Z,18.30
2023-05-03T08:14:41.636Z,18.40
2023-05-03T08:17:10.235Z,18.39
2023-05-03T08:19:38.748Z,18.38
2023-05-03T08:22:07.691Z,18.37
2023-05-03T08:24:36.358Z,18.40
2023-05-03T08:27:06.109Z,18.45
2023-05-03T08:29:37.186Z,18.60
2023-05-03T08:32:06.004Z,18.76
2023-05-03T08:34:34.531Z,18.91
2023-05-03T08:37:05.491Z,19.04
2023-05-03T08:39:34.230Z,19.16
2023-05-03T08:42:08.552Z,19.25
2023-05-03T08:44:42.550Z,19.31
2023-05-03T08:47:12.315Z,19.38
2023-05-03T08:49:42.436Z,19.44
2023-05-03T08:52:14.368Z,19.50
2023-05-03T08:54:43.484Z,19.52
2023-05-03T08:57:15.649Z,19.52
2023-05-03T08:59:48.905Z,19.63
2023-05-03T09:02:18.217Z,19.66
2023-05-03T09:04:47.072Z,19.71
2023-05-03T09:07:20.616Z,19.74
2023-05-03T09:09:49.254Z,19.79
2023-05-03T09:12:38.803Z,19.84
2023-05-03T09:15:08.100Z,19.83
2023-05-03T09:17:36.592Z,19.87
2023-05-03T09:20:09.178Z,19.99
2023-05-03T09:22:51.843Z,20.09
2023-05-03T09:25:20.251Z,20.17
2023-05-03T09:28:01.835Z,20.24
2023-05-03T09:30:30.536Z,20.27
2023-05-03T09:32:59.104Z,20.21
2023-05-03T09:35:29.137Z,20.22
2023-05-03T09:37:57.604Z,20.19
2023-05-03T09:40:28.042Z,20.06
2023-05-03T09:45:45.138Z,20.09
2023-05-03T09:48:14.148Z,20.11
2023-05-03T09:50:43.745Z,20.21
2023-05-03T09:53:13.281Z,20.30
2023-05-03T09:55:42.001Z,20.26
2023-05-03T09:58:10.619Z,20.22
2023-05-03T10:00:42.664Z,20.27
2023-05-03T10:03:13.292Z,20.28
2023-05-03T10:05:51.472Z,20.35
2023-05-03T10:08:37.125Z,20.36
2023-05-03T10:11:08.962Z,20.37
2023-05-03T10:13:37.713Z,20.47
2023-05-03T10:16:11.715Z,20.57
2023-05-03T10:18:56.956Z,20.64
2023-05-03T10:22:05.551Z,20.71
2023-05-03T10:24:36.045Z,20.75
2023-05-03T10:27:11.508Z,20.71
2023-05-03T10:29:49.235Z,20.82
2023-05-03T10:32:32.058Z,21.00
2023-05-03T10:35:08.233Z,21.11
2023-05-03T10:37:38.286Z,21.24
2023-05-03T10:40:16.883Z,21.30
2023-05-03T10:42:54.854Z,21.32
2023-05-03T10:45:30.657Z,21.43
2023-05-03T10:48:11.607Z,21.53
2023-05-03T10:50:40.510Z,21.53
2023-05-03T10:53:29.261Z,21.58
2023-05-03T10:56:12.173Z,21.36
2023-05-03T10:58:50.236Z,21.40
2023-05-03T11:01:22.044Z,21.51
2023-05-03T11:04:24.838Z,21.61
2023-05-03T11:06:57.060Z,21.66
2023-05-03T11:09:34.747Z,21.71
2023-05-03T11:12:17.753Z,21.88
2023-05-03T11:14:50.242Z,22.04
2023-05-03T11:17:18.809Z,22.10
2023-05-03T11:19:47.733Z,22.04
2023-05-03T11:22:16.568Z,22.12
2023-05-03T11:24:45.487Z,22.12
2023-05-03T11:27:16.050Z,22.11
2023-05-03T11:29:49.658Z,22.19
2023-05-03T11:32:19.168Z,22.29
2023-05-03T11:34:48.489Z,22.26
2023-05-03T11:37:17.095Z,22.24
2023-05-03T11:39:48.054Z,22.19
2023-05-03T11:42:16.819Z,22.19
2023-05-03T11:44:45.333Z,22.23
2023-05-03T11:47:14.060Z,22.22
2023-05-03T11:49:56.852Z,22.29
2023-05-03T11:52:27.950Z,22.39
2023-05-03T11:54:56.505Z,22.42
2023-05-03T11:57:25.606Z,22.33
2023-05-03T11:59:54.727Z,22.32
2023-05-03T12:02:24.940Z,22.13
2023-05-03T12:04:57.799Z,22.14
2023-05-03T12:07:27.193Z,22.08
2023-05-03T12:10:13.001Z,22.03
2023-05-03T12:12:56.751Z,22.03
2023-05-03T12:15:33.997Z,22.11
2023-05-03T12:18:09.179Z,22.09
2023-05-03T12:23:13.818Z,22.27
2023-05-03T12:25:45.033Z,22.38
2023-05-03T12:28:20.191Z,22.40
2023-05-03T12:30:52.959Z,22.43
2023-05-03T12:33:22.819Z,22.40
2023-05-03T12:35:54.300Z,22.39
2023-05-03T12:38:24.846Z,22.43
2023-05-03T12:40:54.831Z,22.41
2023-05-03T12:43:30.448Z,22.53
2023-05-03T12:46:29.937Z,22.69
2023-05-03T12:48:54.221Z,22.75
2023-05-03T12:51:25.968Z,22.82
2023-05-03T12:53:55.611Z,22.92
2023-05-03T12:56:25.564Z,23.00
2023-05-03T13:04:11.292Z,23.18
2023-05-03T13:06:47.223Z,23.17
2023-05-03T13:09:21.247Z,23.31
2023-05-03T13:11:53.229Z,23.30
2023-05-03T13:14:22.310Z,23.36
2023-05-03T13:16:51.766Z,23.38
2023-05-03T13:19:20.548Z,23.41
2023-05-03T13:21:49.634Z,23.51
2023-05-03T13:24:22.557Z,23.47
2023-05-03T13:26:51.178Z,23.42
2023-05-03T13:29:19.905Z,23.40
2023-05-03T13:31:48.414Z,23.42
2023-05-03T13:34:17.108Z,23.45
2023-05-03T13:36:45.793Z,23.38
2023-05-03T13:39:14.329Z,23.41
2023-05-03T13:41:43.575Z,23.50
2023-05-03T13:44:12.236Z,23.45
2023-05-03T13:46:41.628Z,23.62
2023-05-03T13:49:11.842Z,23.86
2023-05-03T13:51:40.813Z,24.08
2023-05-03T13:54:09.791Z,24.18
2023-05-03T13:56:38.507Z,24.14
2023-05-03T13:59:09.287Z,24.26
2023-05-03T14:01:38.068Z,24.24
2023-05-03T14:04:07.279Z,24.12
2023-05-03T14:06:38.233Z,24.26
2023-05-03T14:09:09.463Z,24.37
2023-05-03T14:11:40.469Z,24.36
2023-05-03T14:14:09.103Z,24.28
2023-05-03T14:16:41.695Z,24.14
2023-05-03T14:19:11.581Z,23.89
2023-05-03T14:21:45.197Z,23.71
2023-05-03T14:24:14.216Z,23.62
2023-05-03T14:26:42.812Z,23.47
2023-05-03T14:29:11.379Z,23.33
2023-05-03T14:31:40.125Z,23.35
2023-05-03T14:34:08.731Z,23.24
2023-05-03T14:36:39.671Z,22.97
2023-05-03T14:39:08.212Z,23.01
2023-05-03T14:41:37.521Z,23.06
2023-05-03T14:44:07.057Z,23.16
2023-05-03T14:46:35.619Z,23.11
2023-05-03T14:49:04.126Z,23.08
2023-05-03T14:51:33.002Z,23.07
2023-05-03T14:54:01.748Z,23.05
2023-05-03T14:56:32.581Z,22.99
2023-05-03T14:59:01.921Z,23.15
2023-05-03T15:01:30.707Z,23.34
2023-05-03T15:03:59.481Z,23.54
2023-05-03T15:06:31.887Z,23.59
2023-05-03T15:09:00.530Z,23.62
2023-05-03T15:11:29.055Z,23.33
2023-05-03T15:13:57.741Z,23.21
2023-05-03T15:16:26.556Z,23.15
2023-05-03T15:18:55.717Z,22.98
2023-05-03T15:21:24.532Z,22.86
2023-05-03T15:23:54.309Z,22.65
2023-05-03T15:26:24.618Z,22.66
2023-05-03T15:28:53.175Z,22.48
2023-05-03T15:31:22.239Z,22.51
2023-05-03T15:33:50.794Z,22.60
2023-05-03T15:36:19.411Z,22.59
2023-05-03T15:38:48.108Z,22.72
2023-05-03T15:41:16.698Z,22.66
2023-05-03T15:43:46.578Z,22.56
2023-05-03T15:46:16.231Z,22.49
2023-05-03T15:48:45.031Z,22.51
2023-05-03T15:51:13.847Z,22.31
2023-05-03T15:53:42.687Z,22.34
2023-05-03T15:56:11.960Z,22.31
2023-05-03T15:58:40.848Z,22.25
2023-05-03T16:01:09.422Z,22.05
2023-05-03T16:03:38.132Z,22.03
2023-05-03T16:06:07.291Z,21.94
2023-05-03T16:08:36.116Z,21.67
2023-05-03T16:11:04.542Z,21.60
2023-05-03T16:13:32.990Z,21.49
2023-05-03T16:16:03.336Z,21.48
2023-05-03T16:18:32.036Z,21.66
2023-05-03T16:21:02.937Z,22.00
2023-05-03T16:23:31.879Z,22.38
2023-05-03T16:26:01.280Z,22.39
2023-05-03T16:28:30.328Z,22.15
2023-05-03T16:30:58.924Z,21.92
2023-05-03T16:33:27.542Z,21.77
2023-05-03T16:35:56.041Z,21.47
2023-05-03T16:38:30.561Z,21.19
2023-05-03T16:41:00.261Z,20.84
2023-05-03T16:43:29.279Z,20.56
2023-05-03T16:46:02.484Z,20.31
2023-05-03T16:48:32.001Z,20.14
2023-05-03T16:51:00.803Z,20.00
2023-05-03T16:53:29.371Z,19.83
2023-05-03T16:55:58.059Z,19.56
2023-05-03T16:58:26.549Z,19.48
2023-05-03T17:00:55.077Z,19.33
2023-05-03T17:03:24.008Z,19.20
2023-05-03T17:05:52.666Z,19.10
2023-05-03T17:08:22.235Z,18.95
2023-05-03T17:10:51.463Z,18.80
2023-05-03T17:13:20.104Z,18.73
2023-05-03T17:15:48.856Z,18.66
2023-05-03T17:21:46.841Z,18.48
2023-05-03T17:24:15.902Z,18.40
2023-05-03T17:26:44.459Z,18.32
2023-05-03T17:29:13.396Z,18.25
2023-05-03T17:31:42.068Z,18.20
2023-05-03T17:34:10.582Z,18.14
2023-05-03T17:36:39.260Z,18.07
2023-05-03T17:39:07.905Z,18.01
2023-05-03T17:41:37.260Z,17.95
2023-05-03T17:44:05.869Z,17.84
2023-05-03T17:46:35.561Z,17.80
2023-05-03T17:49:05.145Z,17.77
2023-05-03T17:51:33.770Z,17.74
2023-05-03T17:54:02.735Z,17.71
2023-05-03T17:56:31.474Z,17.65
2023-05-03T17:59:00.153Z,17.63
2023-05-03T18:01:28.863Z,17.57
2023-05-03T18:03:58.237Z,17.51
2023-05-03T18:06:28.292Z,17.50
2023-05-03T18:08:57.275Z,17.46
2023-05-03T18:11:25.831Z,17.42
2023-05-03T18:13:54.567Z,17.39
2023-05-03T18:16:23.197Z,17.34
2023-05-03T18:18:53.246Z,17.31
2023-05-03T18:21:23.343Z,17.29
2023-05-03T18:23:51.863Z,17.22
2023-05-03T18:26:20.340Z,17.20
2023-05-03T18:28:49.424Z,17.17
2023-05-03T18:31:18.937Z,17.13
2023-05-03T18:33:48.416Z,17.07
2023-05-03T18:36:17.736Z,17.03
2023-05-03T18:38:47.406Z,16.97
2023-05-03T18:41:16.938Z,16.93
2023-05-03T18:43:47.323Z,16.85
2023-05-03T18:46:19.997Z,16.81
2023-05-03T18:48:48.714Z,16.77
2023-05-03T18:51:18.818Z,16.72
2023-05-03T18:53:47.509Z,16.64
2023-05-03T18:56:16.661Z,16.60
2023-05-03T18:58:48.284Z,16.53
2023-05-03T19:01:17.068Z,16.48
2023-05-03T19:03:45.784Z,16.42
2023-05-03T19:06:14.627Z,16.39
2023-05-03T19:08:43.917Z,16.36
2023-05-03T19:11:14.936Z,16.33
2023-05-03T19:13:47.522Z,16.26
2023-05-03T19:16:16.512Z,16.21
2023-05-03T19:18:45.624Z,16.16
2023-05-03T19:21:17.550Z,16.12
2023-05-03T19:23:46.510Z,16.12
2023-05-03T19:26:15.219Z,16.11
2023-05-03T19:28:45.532Z,16.08
2023-05-03T19:31:14.109Z,16.09
2023-05-03T19:33:42.655Z,16.07
2023-05-03T19:36:15.111Z,16.06
2023-05-03T19:38:43.729Z,16.04
2023-05-03T19:41:14.959Z,16.02
2023-05-03T19:43:43.643Z,16.00
2023-05-03T19:46:12.543Z,15.98
2023-05-03T19:48:41.186Z,15.96
2023-05-03T19:51:15.279Z,15.92
2023-05-03T19:53:45.059Z,15.88
2023-05-03T19:56:15.306Z,15.86
2023-05-03T19:58:44.162Z,15.82
2023-05-03T20:01:12.989Z,15.78
2023-05-03T20:03:42.732Z,15.74
2023-05-03T20:06:11.558Z,15.73
2023-05-03T20:08:40.618Z,15.69
2023-05-03T20:11:09.404Z,15.62
2023-05-03T20:13:38.062Z,15.56
2023-05-03T20:16:06.802Z,15.48
2023-05-03T20:18:35.548Z,15.43
2023-05-03T20:21:04.331Z,15.37
2023-05-03T20:23:32.889Z,15.33
2023-05-03T20:26:01.978Z,15.26
2023-05-03T20:28:32.688Z,15.16
2023-05-03T20:31:01.910Z,15.15
2023-05-03T20:33:30.600Z,15.10
2023-05-03T20:35:59.156Z,15.06
2023-05-03T20:38:27.668Z,15.02
2023-05-03T20:40:56.255Z,14.98
2023-05-03T20:43:25.351Z,14.95
2023-05-03T20:45:54.435Z,14.90
2023-05-03T20:48:23.659Z,14.87
2023-05-03T20:53:41.347Z,14.80
2023-05-03T20:56:10.031Z,14.78
2023-05-03T20:58:38.612Z,14.73
2023-05-03T21:01:08.192Z,14.68
2023-05-03T21:03:36.884Z,14.66
2023-05-03T21:06:06.980Z,14.65
2023-05-03T21:08:36.181Z,14.67
2023-05-03T21:11:05.000Z,14.65
2023-05-03T21:13:35.974Z,14.64
2023-05-03T21:16:08.130Z,14.63
2023-05-03T21:18:36.718Z,14.61
2023-05-03T21:21:05.330Z,14.60
2023-05-03T21:23:33.899Z,14.59
2023-05-03T21:26:02.352Z,14.59
2023-05-03T21:28:32.519Z,14.57
2023-05-03T21:31:01.507Z,14.56
2023-05-03T21:33:30.008Z,14.54
2023-05-03T21:35:58.393Z,14.53
2023-05-03T21:38:27.006Z,14.48
2023-05-03T21:41:08.065Z,14.48
2023-05-03T21:43:36.968Z,14.37
2023-05-03T21:46:08.734Z,14.32
2023-05-03T21:48:37.500Z,14.25
2023-05-03T21:51:06.336Z,14.21
2023-05-03T21:53:35.671Z,14.16
2023-05-03T21:56:04.717Z,14.14
2023-05-03T21:58:33.201Z,14.10
2023-05-03T22:01:01.788Z,14.06
2023-05-03T22:03:30.345Z,13.98
2023-05-03T22:05:59.265Z,13.89
2023-05-03T22:08:27.700Z,13.90
2023-05-03T22:10:56.374Z,13.87
2023-05-03T22:13:24.937Z,13.82
2023-05-03T22:15:53.637Z,13.76
2023-05-03T22:18:22.247Z,13.73
2023-05-03T22:20:50.766Z,13.73
2023-05-03T22:23:19.519Z,13.74
2023-05-03T22:25:48.216Z,13.75
2023-05-03T22:28:16.789Z,13.70
2023-05-03T22:30:45.680Z,13.70
2023-05-03T22:33:14.400Z,13.63
2023-05-03T22:35:42.922Z,13.68
2023-05-03T22:38:11.370Z,13.62
2023-05-03T22:40:39.900Z,13.58
2023-05-03T22:43:08.468Z,13.52
2023-05-03T22:45:37.159Z,13.52
2023-05-03T22:48:06.053Z,13.47
2023-05-03T22:50:34.618Z,13.45
2023-05-03T22:53:03.917Z,13.42
2023-05-03T22:55:32.510Z,13.38
2023-05-03T22:58:01.124Z,13.37
2023-05-03T23:00:30.060Z,13.34
2023-05-03T23:02:58.985Z,13.31
2023-05-03T23:05:27.652Z,13.30
2023-05-03T23:07:56.284Z,13.25
2023-05-03T23:10:24.883Z,13.21
2023-05-03T23:12:53.432Z,13.17
2023-05-03T23:15:22.348Z,13.14
2023-05-03T23:17:51.141Z,13.09
2023-05-03T23:20:20.279Z,13.07
2023-05-03T23:22:49.373Z,13.05
2023-05-03T23:25:17.992Z,13.08
2023-05-03T23:27:46.806Z,13.07
2023-05-03T23:30:15.878Z,13.06
2023-05-03T23:32:46.890Z,13.05
2023-05-03T23:35:16.183Z,13.04
2023-05-03T23:37:44.739Z,13.03
2023-05-03T23:40:13.383Z,13.04
2023-05-03T23:42:43.573Z,13.01
2023-05-03T23:45:12.546Z,13.00
2023-05-03T23:47:41.196Z,13.01
2023-05-03T23:50:10.519Z,12.98
2023-05-03T23:52:39.150Z,12.99
2023-05-03T23:55:08.604Z,12.99
2023-05-03T23:57:38.063Z,12.98
